Time;durP1;ratioP1;P1;durP2;ratioP2;P2;SDS_P1;SDS_P2;PMS_P1;PMS_P2;Temp;Humidity;BMP_temperature;BMP_pressure;BME280_temperature;BME280_humidity;BME280_pressure;Samples;Min_cycle;Max_cycle;Signal;HPM_P1;HPM_P2
2022/01/06 00:00:58;;;;;;;93.20;29.07;;;5.50;99.90;;;;;;4993698;28;20736;-69
2022/01/06 00:03:26;;;;;;;59.07;24.50;;;5.40;99.90;;;;;;4991985;28;20211;-68
2022/01/06 00:05:53;;;;;;;58.57;23.17;;;5.40;99.90;;;;;;4992749;28;20220;-68
2022/01/06 00:08:20;;;;;;;53.30;22.80;;;5.30;99.90;;;;;;4993054;28;20559;-68
2022/01/06 00:10:48;;;;;;;47.37;20.83;;;5.30;99.90;;;;;;4993203;28;20199;-69
2022/01/06 00:13:19;;;;;;;43.30;19.13;;;5.30;99.90;;;;;;4992876;28;20664;-69
2022/01/06 00:16:03;;;;;;;32.40;16.30;;;5.20;99.90;;;;;;4993357;28;20191;-65
2022/01/06 00:18:37;;;;;;;36.73;15.80;;;5.20;99.90;;;;;;4993462;28;20259;-67
2022/01/06 00:23:48;;;;;;;31.10;14.80;;;5.20;99.90;;;;;;4992107;28;20199;-67
2022/01/06 00:26:15;;;;;;;23.47;11.87;;;5.20;99.90;;;;;;4992463;28;20210;-66
2022/01/06 00:28:41;;;;;;;26.20;12.70;;;5.20;99.90;;;;;;4992102;28;20214;-65
2022/01/06 00:31:09;;;;;;;21.83;11.30;;;5.10;99.90;;;;;;4992741;28;20227;-66
2022/01/06 00:33:36;;;;;;;18.30;9.70;;;5.10;99.90;;;;;;4991821;28;20211;-65
2022/01/06 00:36:04;;;;;;;16.70;8.93;;;5.10;99.90;;;;;;4992578;28;20218;-66
2022/01/06 00:38:30;;;;;;;15.87;8.73;;;5.10;99.90;;;;;;4991824;28;20199;-65
2022/01/06 00:40:58;;;;;;;15.53;8.17;;;5.00;99.90;;;;;;4992688;28;20286;-67
2022/01/06 00:43:26;;;;;;;15.13;8.20;;;5.00;99.90;;;;;;4992429;28;20207;-67
2022/01/06 00:45:53;;;;;;;19.90;9.50;;;5.00;99.90;;;;;;4992282;28;20704;-65
2022/01/06 00:48:21;;;;;;;13.97;8.33;;;5.00;99.90;;;;;;4973554;28;20436;-66
2022/01/06 00:50:48;;;;;;;15.37;7.97;;;5.00;99.90;;;;;;4981678;28;20213;-65
2022/01/06 00:53:15;;;;;;;14.43;7.47;;;5.00;99.90;;;;;;4992117;28;20578;-66
2022/01/06 00:55:42;;;;;;;12.07;7.50;;;5.00;99.90;;;;;;4994561;28;20562;-65
2022/01/06 00:58:09;;;;;;;12.23;8.00;;;5.10;99.90;;;;;;4996317;28;20370;-67
2022/01/06 01:00:41;;;;;;;14.07;8.67;;;5.10;99.90;;;;;;4996141;28;20247;-65
2022/01/06 01:03:11;;;;;;;11.97;7.33;;;5.10;99.90;;;;;;4996688;28;20466;-68
2022/01/06 01:05:40;;;;;;;10.40;6.30;;;5.10;99.90;;;;;;4996468;28;20231;-65
2022/01/06 01:08:07;;;;;;;11.27;6.30;;;5.10;99.90;;;;;;4996513;28;20199;-65
2022/01/06 01:10:34;;;;;;;10.77;7.03;;;5.10;99.90;;;;;;4996301;28;20206;-66
2022/01/06 01:13:01;;;;;;;11.70;7.53;;;5.10;99.90;;;;;;4996216;28;20207;-66
2022/01/06 01:15:28;;;;;;;14.10;7.77;;;5.10;99.90;;;;;;4995974;28;20299;-66
2022/01/06 01:18:04;;;;;;;14.63;8.10;;;5.10;99.90;;;;;;4995937;28;20218;-66
2022/01/06 01:20:32;;;;;;;16.73;9.17;;;5.10;99.90;;;;;;4995831;28;20297;-65
2022/01/06 01:23:00;;;;;;;13.00;8.13;;;5.20;99.90;;;;;;4995308;28;20556;-65
2022/01/06 01:25:27;;;;;;;14.07;8.33;;;5.10;99.90;;;;;;4995683;28;20203;-65
2022/01/06 01:27:55;;;;;;;11.20;7.33;;;5.20;99.90;;;;;;4995929;28;20210;-66
2022/01/06 01:30:29;;;;;;;11.80;7.63;;;5.20;99.90;;;;;;4995481;28;20199;-66
2022/01/06 01:32:58;;;;;;;13.73;7.50;;;5.20;99.90;;;;;;4995710;28;20194;-65
2022/01/06 01:35:30;;;;;;;13.37;7.40;;;5.30;99.90;;;;;;4989333;28;20227;-64
2022/01/06 01:37:57;;;;;;;11.37;7.30;;;5.30;99.90;;;;;;4976302;28;20268;-65
2022/01/06 01:40:26;;;;;;;11.40;7.40;;;5.40;99.90;;;;;;4975714;28;20227;-67
2022/01/06 01:42:53;;;;;;;10.63;7.10;;;5.40;99.90;;;;;;4975788;28;20213;-65
2022/01/06 01:45:26;;;;;;;9.37;7.13;;;5.50;99.90;;;;;;4975627;28;20234;-65
2022/01/06 01:47:53;;;;;;;9.20;6.60;;;5.50;99.90;;;;;;4976269;28;20197;-65
2022/01/06 01:50:21;;;;;;;12.33;7.00;;;5.60;99.90;;;;;;4976186;28;20227;-65
2022/01/06 01:52:51;;;;;;;13.13;7.10;;;5.60;99.90;;;;;;4976736;28;20570;-67
2022/01/06 01:55:20;;;;;;;13.53;7.53;;;5.60;99.90;;;;;;4976120;28;20214;-65
2022/01/06 01:57:48;;;;;;;12.87;6.40;;;5.60;99.90;;;;;;4976020;28;20215;-65
2022/01/06 02:00:16;;;;;;;14.33;7.80;;;5.70;99.90;;;;;;4975226;28;20232;-64
2022/01/06 02:02:43;;;;;;;15.10;8.20;;;5.60;99.90;;;;;;4975859;28;20216;-66
2022/01/06 02:05:11;;;;;;;13.97;7.93;;;5.60;99.90;;;;;;4976411;28;20204;-66
2022/01/06 02:07:40;;;;;;;14.03;7.57;;;5.60;99.90;;;;;;4974974;28;20304;-67
2022/01/06 02:10:09;;;;;;;12.03;7.30;;;5.60;99.90;;;;;;4975527;28;20727;-66
2022/01/06 02:12:37;;;;;;;10.67;6.83;;;5.70;99.90;;;;;;4989967;28;20212;-67
2022/01/06 02:15:06;;;;;;;11.93;7.47;;;5.70;99.90;;;;;;4996226;28;20630;-67
2022/01/06 02:17:33;;;;;;;12.53;8.03;;;5.70;99.90;;;;;;4991229;28;20732;-67
2022/01/06 02:20:03;;;;;;;12.60;7.53;;;5.70;99.90;;;;;;4994808;28;20223;-65
2022/01/06 02:22:30;;;;;;;13.20;7.73;;;5.70;99.90;;;;;;4992711;28;20212;-64
2022/01/06 02:24:57;;;;;;;13.57;7.80;;;5.70;99.90;;;;;;4994481;28;20698;-65
2022/01/06 02:27:24;;;;;;;9.60;6.60;;;5.70;99.90;;;;;;4994375;28;20294;-64
2022/01/06 02:29:52;;;;;;;11.53;7.47;;;5.70;99.90;;;;;;4976649;28;20214;-63
2022/01/06 02:32:22;;;;;;;10.07;6.60;;;5.70;99.90;;;;;;4991251;28;20222;-65
2022/01/06 02:34:49;;;;;;;12.37;6.93;;;5.60;99.90;;;;;;4994418;28;20270;-66
2022/01/06 02:37:17;;;;;;;11.73;6.77;;;5.60;99.90;;;;;;4994255;28;20207;-65
2022/01/06 02:39:44;;;;;;;9.90;6.33;;;5.60;99.90;;;;;;4994049;28;20222;-65
2022/01/06 02:42:11;;;;;;;8.40;5.80;;;5.60;99.90;;;;;;4994957;28;20203;-64
2022/01/06 02:44:39;;;;;;;8.93;6.03;;;5.60;99.90;;;;;;4994012;28;20234;-64
2022/01/06 02:47:07;;;;;;;10.87;6.73;;;5.60;99.90;;;;;;4994545;28;20254;-67
2022/01/06 02:49:34;;;;;;;11.20;7.03;;;5.50;99.90;;;;;;4993885;28;20225;-64
2022/01/06 02:52:01;;;;;;;8.73;6.23;;;5.50;99.90;;;;;;4994819;28;20211;-64
2022/01/06 02:54:29;;;;;;;16.73;9.03;;;5.50;99.90;;;;;;4994076;28;20204;-64
2022/01/06 02:56:56;;;;;;;9.40;6.83;;;5.50;99.90;;;;;;4994204;28;20343;-64
2022/01/06 02:59:23;;;;;;;6.70;5.03;;;5.50;99.90;;;;;;4993749;28;20669;-66
2022/01/06 03:01:50;;;;;;;8.43;5.80;;;5.50;99.90;;;;;;4994152;28;20229;-65
2022/01/06 03:04:20;;;;;;;6.77;4.97;;;5.50;99.90;;;;;;4993644;28;20249;-65
2022/01/06 03:06:47;;;;;;;8.53;5.33;;;5.50;99.90;;;;;;4993774;28;20204;-62
2022/01/06 03:09:14;;;;;;;7.43;5.17;;;5.50;99.90;;;;;;4993701;28;20700;-63
2022/01/06 03:11:44;;;;;;;7.03;5.10;;;5.50;99.90;;;;;;4975852;28;20683;-67
2022/01/06 03:14:11;;;;;;;7.87;5.00;;;5.50;99.90;;;;;;4974744;28;20589;-67
2022/01/06 03:16:38;;;;;;;8.00;5.10;;;5.50;99.90;;;;;;4974824;28;20729;-66
2022/01/06 03:19:04;;;;;;;7.77;5.30;;;5.50;99.90;;;;;;4973394;28;20216;-68
2022/01/06 03:21:31;;;;;;;5.87;4.77;;;5.50;99.90;;;;;;4973725;28;20223;-68
2022/01/06 03:23:58;;;;;;;7.10;5.10;;;5.60;99.90;;;;;;4993662;28;20203;-67
2022/01/06 03:26:25;;;;;;;6.03;4.63;;;5.60;99.90;;;;;;4993530;28;20668;-69
2022/01/06 03:28:53;;;;;;;5.60;4.43;;;5.60;99.90;;;;;;4994446;28;20660;-66
2022/01/06 03:31:20;;;;;;;6.80;4.70;;;5.60;99.90;;;;;;4993472;28;20203;-65
2022/01/06 03:33:47;;;;;;;6.73;4.73;;;5.60;99.90;;;;;;4993079;28;20215;-67
2022/01/06 03:36:14;;;;;;;6.70;4.70;;;5.70;99.90;;;;;;4993080;28;20218;-65
2022/01/06 03:38:41;;;;;;;8.13;5.10;;;5.70;99.90;;;;;;4992963;28;20207;-64
2022/01/06 03:41:08;;;;;;;7.23;4.47;;;5.70;99.90;;;;;;4993251;28;20454;-67
2022/01/06 03:43:35;;;;;;;5.97;4.63;;;5.70;99.90;;;;;;4993704;28;20221;-66
2022/01/06 03:46:03;;;;;;;5.80;4.37;;;5.60;99.90;;;;;;4992793;28;20723;-66
2022/01/06 03:48:30;;;;;;;7.13;5.20;;;5.70;99.90;;;;;;4992182;28;20215;-66
2022/01/06 03:50:57;;;;;;;8.53;5.23;;;5.70;99.90;;;;;;4992437;28;20238;-66
2022/01/06 03:53:23;;;;;;;6.97;4.90;;;5.70;99.90;;;;;;4993240;28;20206;-65
2022/01/06 03:55:50;;;;;;;6.70;4.87;;;5.70;99.90;;;;;;4992894;28;20204;-65
2022/01/06 03:58:17;;;;;;;7.77;5.13;;;5.70;99.90;;;;;;4993940;28;20200;-66
2022/01/06 04:00:44;;;;;;;6.70;5.17;;;5.70;99.90;;;;;;4993349;28;20581;-64
2022/01/06 04:03:12;;;;;;;7.83;5.50;;;5.70;99.90;;;;;;4992860;28;20208;-65
2022/01/06 04:05:39;;;;;;;8.27;5.50;;;5.70;99.90;;;;;;4993063;28;20636;-65
2022/01/06 04:08:05;;;;;;;9.10;5.13;;;5.70;99.90;;;;;;4992397;28;20208;-65
2022/01/06 04:10:32;;;;;;;8.33;5.90;;;5.70;99.90;;;;;;4993316;28;20203;-64
2022/01/06 04:12:59;;;;;;;9.33;6.03;;;5.70;99.90;;;;;;4993034;28;20203;-66
2022/01/06 04:15:26;;;;;;;10.57;6.07;;;5.70;99.90;;;;;;4992000;28;20212;-66
2022/01/06 04:17:54;;;;;;;9.73;6.87;;;5.70;99.90;;;;;;4993116;28;20207;-67
2022/01/06 04:20:22;;;;;;;11.63;7.40;;;5.70;99.90;;;;;;4992295;28;20230;-67
2022/01/06 04:22:49;;;;;;;12.00;7.10;;;5.70;99.90;;;;;;4993409;28;20208;-64
2022/01/06 04:25:16;;;;;;;10.70;7.10;;;5.70;99.90;;;;;;4992637;28;20211;-63
2022/01/06 04:27:42;;;;;;;11.03;7.10;;;5.70;99.90;;;;;;4992820;28;20203;-67
2022/01/06 04:30:11;;;;;;;10.43;7.07;;;5.60;99.90;;;;;;4991292;28;20226;-66
2022/01/06 04:32:37;;;;;;;10.73;7.70;;;5.70;99.90;;;;;;4992722;28;20217;-66
2022/01/06 04:35:06;;;;;;;10.77;7.27;;;5.70;99.90;;;;;;4988858;28;20582;-68
2022/01/06 04:37:34;;;;;;;11.80;7.43;;;5.70;99.90;;;;;;4973183;28;20215;-68
2022/01/06 04:40:01;;;;;;;10.90;7.17;;;5.70;99.90;;;;;;4972844;28;20216;-66
2022/01/06 04:42:28;;;;;;;12.03;7.50;;;5.70;99.90;;;;;;4972919;28;20227;-67
2022/01/06 04:44:55;;;;;;;10.97;7.40;;;5.70;99.90;;;;;;4972995;28;20228;-68
2022/01/06 04:47:22;;;;;;;10.67;7.93;;;5.70;99.90;;;;;;4972907;28;20689;-68
2022/01/06 04:49:48;;;;;;;10.63;7.27;;;5.70;99.90;;;;;;4973208;28;20204;-66
2022/01/06 04:52:15;;;;;;;11.73;7.60;;;5.70;99.90;;;;;;4973475;28;20558;-65
2022/01/06 04:54:43;;;;;;;9.83;7.30;;;5.70;99.90;;;;;;4973193;28;20806;-65
2022/01/06 04:57:10;;;;;;;12.63;8.13;;;5.70;99.90;;;;;;4972696;28;20211;-66
2022/01/06 04:59:37;;;;;;;13.77;8.67;;;5.70;99.90;;;;;;4973406;28;20258;-65
2022/01/06 05:02:04;;;;;;;11.00;8.00;;;5.70;99.90;;;;;;4972889;28;20232;-65
2022/01/06 05:04:31;;;;;;;13.33;9.00;;;5.70;99.90;;;;;;4972445;28;20212;-66
2022/01/06 05:06:58;;;;;;;14.90;9.00;;;5.70;99.90;;;;;;4985980;28;20207;-66
2022/01/06 05:09:25;;;;;;;12.60;7.97;;;5.70;99.90;;;;;;4991906;28;20299;-68
2022/01/06 05:11:53;;;;;;;11.27;8.07;;;5.70;99.90;;;;;;4992107;28;20203;-66
2022/01/06 05:14:20;;;;;;;13.47;8.50;;;5.70;99.90;;;;;;4992186;28;20657;-67
2022/01/06 05:16:47;;;;;;;13.97;8.90;;;5.60;99.90;;;;;;4992180;28;20656;-67
2022/01/06 05:19:14;;;;;;;13.47;8.40;;;5.70;99.90;;;;;;4991861;28;20203;-67
2022/01/06 05:21:40;;;;;;;13.03;8.43;;;5.70;99.90;;;;;;4992579;28;20438;-67
2022/01/06 05:24:12;;;;;;;12.70;8.50;;;5.70;99.90;;;;;;4991902;28;20294;-67
2022/01/06 05:26:39;;;;;;;13.80;8.50;;;5.70;99.90;;;;;;4992425;28;20688;-68
2022/01/06 05:29:08;;;;;;;14.03;9.07;;;5.70;99.90;;;;;;4992291;28;20593;-66
2022/01/06 05:31:35;;;;;;;12.50;8.33;;;5.70;99.90;;;;;;4991777;28;20196;-67
2022/01/06 05:34:04;;;;;;;11.10;7.93;;;5.60;99.90;;;;;;4992287;28;20308;-68
2022/01/06 05:36:31;;;;;;;11.10;7.60;;;5.60;99.90;;;;;;4992407;28;20664;-69
2022/01/06 05:38:58;;;;;;;13.77;8.23;;;5.60;99.90;;;;;;4992046;28;20207;-68
2022/01/06 05:41:25;;;;;;;11.03;7.70;;;5.60;99.90;;;;;;4993416;28;20223;-67
2022/01/06 05:43:52;;;;;;;10.60;7.33;;;5.60;99.90;;;;;;4995263;28;20230;-66
2022/01/06 05:46:20;;;;;;;13.40;8.17;;;5.50;99.90;;;;;;4995481;28;20207;-67
2022/01/06 05:48:48;;;;;;;12.37;7.60;;;5.50;99.90;;;;;;4995407;28;20218;-68
2022/01/06 05:51:15;;;;;;;12.60;8.87;;;5.60;99.90;;;;;;4995032;28;20339;-68
2022/01/06 05:53:42;;;;;;;12.27;8.03;;;5.60;99.90;;;;;;4995233;28;20199;-67
2022/01/06 05:56:09;;;;;;;12.87;8.80;;;5.60;99.90;;;;;;4995365;28;20207;-67
2022/01/06 05:58:37;;;;;;;15.03;9.50;;;5.60;99.90;;;;;;4994469;28;20302;-66
2022/01/06 06:01:04;;;;;;;21.63;11.17;;;5.60;99.90;;;;;;4995105;28;20208;-66
2022/01/06 06:03:32;;;;;;;22.63;12.80;;;5.60;99.90;;;;;;4995379;28;20208;-68
2022/01/06 06:05:59;;;;;;;30.03;15.57;;;5.70;99.90;;;;;;4994872;28;20211;-67
2022/01/06 06:08:26;;;;;;;24.03;13.17;;;5.70;99.90;;;;;;4995353;28;20207;-66
2022/01/06 06:10:52;;;;;;;19.50;12.10;;;5.70;99.90;;;;;;4994851;28;20195;-65
2022/01/06 06:13:19;;;;;;;24.70;12.07;;;5.70;99.90;;;;;;4994873;28;20199;-67
2022/01/06 06:15:46;;;;;;;23.20;12.87;;;5.70;99.90;;;;;;4995000;28;20219;-66
2022/01/06 06:18:13;;;;;;;17.83;11.57;;;5.60;99.90;;;;;;4994674;28;20214;-68
2022/01/06 06:20:41;;;;;;;16.40;10.40;;;5.60;99.90;;;;;;4994923;28;20211;-67
2022/01/06 06:23:08;;;;;;;12.57;8.20;;;5.60;99.90;;;;;;4994864;28;20215;-66
2022/01/06 06:25:36;;;;;;;11.23;7.57;;;5.60;99.90;;;;;;4995074;28;20211;-68
2022/01/06 06:28:02;;;;;;;11.33;8.30;;;5.70;99.90;;;;;;4994478;28;20217;-67
2022/01/06 06:30:29;;;;;;;10.93;7.33;;;5.70;99.90;;;;;;4994950;28;20303;-66
2022/01/06 06:32:56;;;;;;;13.93;7.90;;;5.70;99.90;;;;;;4994669;28;20301;-67
2022/01/06 06:35:23;;;;;;;9.47;7.20;;;5.70;99.90;;;;;;4994941;28;20203;-69
2022/01/06 06:37:51;;;;;;;11.60;7.53;;;5.70;99.90;;;;;;4994122;28;20545;-68
2022/01/06 06:40:19;;;;;;;14.40;8.93;;;5.70;99.90;;;;;;4994320;28;20212;-66
2022/01/06 06:42:46;;;;;;;13.33;8.13;;;5.70;99.90;;;;;;4993861;28;20282;-66
2022/01/06 06:45:13;;;;;;;11.97;8.00;;;5.70;99.90;;;;;;4994109;28;20665;-66
2022/01/06 06:47:40;;;;;;;13.53;8.33;;;5.70;99.90;;;;;;4994162;28;20249;-65
2022/01/06 06:50:08;;;;;;;13.23;8.67;;;5.70;99.90;;;;;;4992925;28;20731;-66
2022/01/06 06:52:35;;;;;;;10.57;7.37;;;5.70;99.90;;;;;;4973549;28;20208;-68
2022/01/06 06:55:04;;;;;;;10.67;7.30;;;5.70;99.90;;;;;;4974237;28;20223;-65
2022/01/06 06:57:30;;;;;;;9.33;6.40;;;5.70;99.90;;;;;;4989296;28;20214;-67
2022/01/06 07:00:02;;;;;;;8.87;6.50;;;5.70;99.90;;;;;;4993905;28;20237;-67
2022/01/06 07:02:29;;;;;;;11.03;6.23;;;5.60;99.90;;;;;;4993508;28;20218;-67
2022/01/06 07:04:56;;;;;;;9.67;6.00;;;5.60;99.90;;;;;;4992374;28;20207;-66
2022/01/06 07:07:23;;;;;;;8.50;5.93;;;5.60;99.90;;;;;;4992754;28;20199;-67
2022/01/06 07:09:50;;;;;;;9.73;6.60;;;5.60;99.90;;;;;;4992010;28;20710;-66
2022/01/06 07:12:18;;;;;;;9.20;6.10;;;5.60;99.90;;;;;;4992465;28;20203;-66
2022/01/06 07:14:45;;;;;;;10.63;6.37;;;5.60;99.90;;;;;;4992279;28;21149;-65
2022/01/06 07:17:11;;;;;;;8.73;5.63;;;5.60;99.90;;;;;;4987522;28;20200;-66
2022/01/06 07:19:38;;;;;;;7.17;4.80;;;5.60;99.90;;;;;;4992281;28;20653;-65
2022/01/06 07:22:05;;;;;;;5.17;3.50;;;5.50;99.90;;;;;;4991679;28;20223;-66
2022/01/06 07:24:32;;;;;;;7.00;3.33;;;5.40;99.90;;;;;;4992502;28;20706;-66
2022/01/06 07:27:00;;;;;;;7.40;3.63;;;5.30;99.90;;;;;;4991830;28;20203;-66
2022/01/06 07:29:28;;;;;;;6.00;3.40;;;5.20;99.90;;;;;;4992324;28;20542;-66
2022/01/06 07:31:55;;;;;;;5.27;2.77;;;5.10;99.90;;;;;;4991847;28;20214;-69
2022/01/06 07:34:22;;;;;;;7.17;3.40;;;5.00;99.90;;;;;;4991988;28;20204;-67
2022/01/06 07:36:49;;;;;;;4.00;2.83;;;4.90;99.90;;;;;;4991105;28;20211;-66
2022/01/06 07:39:16;;;;;;;6.80;3.63;;;4.80;99.90;;;;;;4993403;28;20672;-68
2022/01/06 07:41:42;;;;;;;4.10;2.90;;;4.80;99.90;;;;;;4993182;28;20223;-68
2022/01/06 07:44:09;;;;;;;4.60;2.80;;;4.70;99.90;;;;;;4992541;28;20231;-69
2022/01/06 07:46:40;;;;;;;3.73;3.00;;;4.60;99.90;;;;;;4992044;28;20206;-67
2022/01/06 07:49:07;;;;;;;5.13;2.90;;;4.50;99.90;;;;;;4989750;28;20199;-66
2022/01/06 07:51:34;;;;;;;4.73;3.03;;;4.50;99.90;;;;;;4992099;28;20196;-66
2022/01/06 07:54:01;;;;;;;5.47;2.93;;;4.40;99.90;;;;;;4991812;28;20203;-65
2022/01/06 07:56:28;;;;;;;7.60;3.27;;;4.40;99.90;;;;;;4991211;28;20207;-66
2022/01/06 07:58:55;;;;;;;5.87;3.13;;;4.40;99.90;;;;;;4991955;28;20783;-67
2022/01/06 08:01:22;;;;;;;9.90;3.33;;;4.30;99.90;;;;;;4991953;28;20235;-66
2022/01/06 08:03:51;;;;;;;5.93;3.40;;;4.30;99.90;;;;;;4992558;28;20673;-66
2022/01/06 08:06:18;;;;;;;7.40;3.90;;;4.30;99.90;;;;;;4992107;28;20215;-67
2022/01/06 08:08:45;;;;;;;7.37;4.27;;;4.30;99.90;;;;;;4992273;28;20211;-67
2022/01/06 08:11:12;;;;;;;7.43;4.43;;;4.30;99.90;;;;;;4992659;28;20214;-66
2022/01/06 08:13:39;;;;;;;10.10;4.70;;;4.20;99.90;;;;;;4991840;28;20222;-66
2022/01/06 08:16:06;;;;;;;11.10;4.83;;;4.20;99.90;;;;;;4992199;28;20566;-68
2022/01/06 08:18:33;;;;;;;8.83;4.43;;;4.30;99.90;;;;;;4992028;28;20215;-68
2022/01/06 08:21:01;;;;;;;8.00;3.87;;;4.20;99.90;;;;;;4991977;28;20199;-66
2022/01/06 08:23:28;;;;;;;8.27;4.30;;;4.20;99.90;;;;;;4992583;28;20228;-67
2022/01/06 08:25:55;;;;;;;5.63;3.63;;;4.30;99.90;;;;;;4992162;28;20215;-65
2022/01/06 08:28:22;;;;;;;5.77;3.43;;;4.30;99.90;;;;;;4992537;28;20560;-67
2022/01/06 08:30:49;;;;;;;10.17;3.87;;;4.30;99.90;;;;;;4991805;28;20204;-68
2022/01/06 08:33:16;;;;;;;6.67;4.20;;;4.30;99.90;;;;;;4992179;28;20212;-67
2022/01/06 08:35:43;;;;;;;6.90;3.60;;;4.30;99.90;;;;;;4992146;28;20603;-68
2022/01/06 08:38:12;;;;;;;6.67;3.97;;;4.30;99.90;;;;;;4992171;28;20543;-65
2022/01/06 08:40:38;;;;;;;8.20;4.23;;;4.30;99.90;;;;;;4991914;28;20207;-68
2022/01/06 08:43:05;;;;;;;10.13;4.47;;;4.30;99.90;;;;;;4992219;28;20233;-69
2022/01/06 08:45:32;;;;;;;7.37;4.00;;;4.30;99.90;;;;;;4992271;28;20572;-68
2022/01/06 08:48:01;;;;;;;11.43;4.50;;;4.30;99.90;;;;;;4992284;28;20219;-69
2022/01/06 08:50:28;;;;;;;6.87;3.90;;;4.30;99.90;;;;;;4991157;28;20207;-68
2022/01/06 08:52:56;;;;;;;8.83;4.13;;;4.30;99.90;;;;;;4991921;28;20257;-69
2022/01/06 08:55:26;;;;;;;6.23;4.00;;;4.30;99.90;;;;;;4992613;28;20682;-67
2022/01/06 08:57:53;;;;;;;11.03;4.87;;;4.30;99.90;;;;;;4991269;28;20325;-66
2022/01/06 09:00:20;;;;;;;8.93;4.27;;;4.30;99.90;;;;;;4991435;28;20250;-66
2022/01/06 09:02:47;;;;;;;8.30;4.00;;;4.30;99.90;;;;;;4992238;28;20234;-68
2022/01/06 09:05:14;;;;;;;7.00;3.90;;;4.30;99.90;;;;;;4992427;28;20211;-66
2022/01/06 09:07:42;;;;;;;5.23;3.57;;;4.30;99.90;;;;;;4992072;28;20208;-67
2022/01/06 09:10:09;;;;;;;8.97;4.30;;;4.30;99.90;;;;;;4992594;28;20215;-68
2022/01/06 09:12:37;;;;;;;8.03;4.00;;;4.30;99.90;;;;;;4991591;28;20199;-67
2022/01/06 09:15:06;;;;;;;9.63;4.30;;;4.30;99.90;;;;;;4992320;28;20302;-68
2022/01/06 09:17:35;;;;;;;8.73;4.40;;;4.30;99.90;;;;;;4995429;28;20203;-69
2022/01/06 09:20:02;;;;;;;5.90;4.37;;;4.30;99.90;;;;;;4997532;28;20207;-67
2022/01/06 09:22:29;;;;;;;10.67;4.43;;;4.20;99.90;;;;;;4999707;28;20281;-69
2022/01/06 09:24:56;;;;;;;8.27;4.33;;;4.20;99.90;;;;;;4990005;28;20577;-68
2022/01/06 09:27:23;;;;;;;12.70;5.30;;;4.20;99.90;;;;;;4994274;28;20209;-67
2022/01/06 09:29:52;;;;;;;7.03;4.10;;;4.20;99.90;;;;;;4994882;28;20254;-68
2022/01/06 09:32:19;;;;;;;6.20;3.90;;;4.20;99.90;;;;;;4995116;28;20220;-68
2022/01/06 09:34:46;;;;;;;8.60;4.53;;;4.20;99.90;;;;;;4990796;28;20199;-67
2022/01/06 09:37:14;;;;;;;6.70;4.13;;;4.20;99.90;;;;;;4995108;28;20199;-67
2022/01/06 09:39:41;;;;;;;5.77;4.10;;;4.20;99.90;;;;;;4994431;28;20199;-68
2022/01/06 09:42:09;;;;;;;7.53;4.40;;;4.20;99.90;;;;;;4994682;28;20219;-68
2022/01/06 09:44:38;;;;;;;7.90;4.30;;;4.10;99.90;;;;;;4993468;28;20254;-66
2022/01/06 09:47:08;;;;;;;8.67;3.70;;;4.10;99.90;;;;;;4994562;28;20649;-68
2022/01/06 09:49:37;;;;;;;7.10;4.30;;;4.10;99.90;;;;;;4994687;28;20563;-68
2022/01/06 09:52:05;;;;;;;8.50;5.40;;;4.10;99.90;;;;;;4994867;28;20200;-67
2022/01/06 09:54:32;;;;;;;10.43;4.67;;;4.10;99.90;;;;;;4994318;28;20250;-69
2022/01/06 09:56:59;;;;;;;7.03;3.80;;;4.20;99.90;;;;;;4992090;28;20214;-69
2022/01/06 09:59:26;;;;;;;6.93;4.23;;;4.20;99.90;;;;;;4993648;28;20231;-68
2022/01/06 10:01:53;;;;;;;9.13;4.47;;;4.10;99.90;;;;;;4994204;28;20208;-67
2022/01/06 10:04:25;;;;;;;8.10;4.40;;;4.10;99.90;;;;;;4994036;28;20237;-66
2022/01/06 10:07:04;;;;;;;10.17;6.47;;;4.10;99.90;;;;;;4993689;28;20242;-68
2022/01/06 10:09:33;;;;;;;10.37;5.50;;;4.10;99.90;;;;;;4994397;28;20656;-69
2022/01/06 10:12:03;;;;;;;9.37;4.33;;;4.10;99.90;;;;;;4994964;28;20253;-66
2022/01/06 10:14:40;;;;;;;9.67;4.80;;;4.10;99.90;;;;;;4994885;28;20211;-68
2022/01/06 10:17:07;;;;;;;7.33;4.40;;;4.20;99.90;;;;;;4994454;28;20203;-68
2022/01/06 10:19:40;;;;;;;8.20;4.67;;;4.20;99.90;;;;;;4994745;28;20576;-67
2022/01/06 10:22:13;;;;;;;9.70;5.83;;;4.30;99.90;;;;;;4993385;28;20202;-68
2022/01/06 10:24:39;;;;;;;8.57;4.63;;;4.30;99.90;;;;;;4994929;28;20196;-67
2022/01/06 10:27:09;;;;;;;9.30;4.60;;;4.40;99.90;;;;;;4993996;28;20683;-68
2022/01/06 10:29:38;;;;;;;9.73;4.80;;;4.50;99.90;;;;;;4999865;28;20195;-67
2022/01/06 10:32:07;;;;;;;9.10;4.37;;;4.60;99.90;;;;;;4995019;28;20250;-69
2022/01/06 10:34:36;;;;;;;5.27;3.67;;;4.70;99.90;;;;;;4992523;28;20295;-68
2022/01/06 10:37:16;;;;;;;6.17;3.57;;;4.70;99.90;;;;;;4992468;28;20243;-68
2022/01/06 10:39:44;;;;;;;6.00;3.30;;;4.70;99.90;;;;;;4973556;28;20218;-66
2022/01/06 10:42:11;;;;;;;6.97;3.30;;;4.80;99.90;;;;;;4974027;28;20211;-69
2022/01/06 10:44:47;;;;;;;7.57;3.43;;;4.80;99.90;;;;;;4974215;28;20571;-69
2022/01/06 10:47:14;;;;;;;5.97;3.40;;;4.90;99.90;;;;;;4973920;28;20254;-66
2022/01/06 10:49:40;;;;;;;6.67;3.50;;;4.90;99.90;;;;;;4976674;28;20214;-67
2022/01/06 10:52:09;;;;;;;6.30;3.60;;;5.00;99.90;;;;;;4994072;28;20688;-67
2022/01/06 10:54:37;;;;;;;7.73;3.40;;;5.00;99.90;;;;;;4987785;28;20229;-67
2022/01/06 10:57:07;;;;;;;6.37;3.10;;;5.10;99.90;;;;;;4978297;28;20254;-66
2022/01/06 10:59:35;;;;;;;6.50;3.40;;;5.00;99.90;;;;;;4993617;28;20313;-66
2022/01/06 11:02:03;;;;;;;4.67;3.17;;;5.00;99.90;;;;;;4994062;28;20238;-66
2022/01/06 11:04:30;;;;;;;8.13;4.13;;;5.10;99.90;;;;;;4993918;28;20214;-67
2022/01/06 11:06:57;;;;;;;9.43;5.23;;;5.00;99.90;;;;;;4994143;28;20227;-67
2022/01/06 11:09:29;;;;;;;8.97;4.30;;;5.00;99.90;;;;;;4993393;28;20208;-66
2022/01/06 11:14:44;;;;;;;7.83;4.63;;;5.00;99.90;;;;;;4974459;28;20195;-66
2022/01/06 11:17:11;;;;;;;10.00;4.00;;;5.00;99.90;;;;;;4974331;28;20243;-67
2022/01/06 11:19:39;;;;;;;7.13;4.00;;;5.00;99.90;;;;;;4973904;28;20210;-67
2022/01/06 11:22:07;;;;;;;6.43;3.90;;;4.90;99.90;;;;;;4973704;28;20208;-68
2022/01/06 11:24:37;;;;;;;8.60;4.00;;;4.90;99.90;;;;;;4973854;28;20224;-67
2022/01/06 11:27:06;;;;;;;6.97;4.00;;;4.90;99.90;;;;;;4974366;28;20208;-68
2022/01/06 11:29:35;;;;;;;8.10;4.40;;;4.90;99.90;;;;;;4975509;28;20212;-66
2022/01/06 11:32:04;;;;;;;8.00;4.40;;;4.90;99.90;;;;;;4974861;28;20209;-68
2022/01/06 11:34:37;;;;;;;10.17;4.50;;;4.90;99.90;;;;;;4993899;28;20765;-67
2022/01/06 11:37:10;;;;;;;9.60;5.00;;;5.00;99.90;;;;;;4994282;28;20223;-67
2022/01/06 11:39:39;;;;;;;9.53;5.10;;;4.90;99.90;;;;;;4993887;28;20614;-67
2022/01/06 11:42:15;;;;;;;12.00;5.93;;;4.80;99.90;;;;;;4993043;28;20203;-66
2022/01/06 11:44:51;;;;;;;12.87;6.60;;;4.80;99.90;;;;;;4993603;28;20202;-67
2022/01/06 11:47:29;;;;;;;10.90;6.40;;;4.80;99.90;;;;;;4993653;28;20187;-68
2022/01/06 11:50:10;;;;;;;15.80;6.73;;;4.80;99.90;;;;;;4992772;28;20254;-68
2022/01/06 11:52:37;;;;;;;10.87;6.87;;;4.80;99.90;;;;;;4993667;28;20201;-67
2022/01/06 11:55:14;;;;;;;11.40;6.97;;;4.80;99.90;;;;;;4992385;28;20210;-68
2022/01/06 11:57:41;;;;;;;10.77;6.20;;;4.80;99.90;;;;;;4992985;28;20203;-69
2022/01/06 12:00:17;;;;;;;11.33;6.27;;;4.80;99.90;;;;;;4991084;28;20242;-69
2022/01/06 12:02:56;;;;;;;10.77;6.47;;;4.80;99.90;;;;;;4990015;28;20258;-70
2022/01/06 12:05:23;;;;;;;10.83;6.63;;;4.80;99.90;;;;;;4992869;28;20202;-67
2022/01/06 12:07:54;;;;;;;12.77;6.23;;;4.80;99.90;;;;;;4993359;28;20214;-69
2022/01/06 12:10:22;;;;;;;12.57;6.53;;;4.80;99.90;;;;;;4992426;28;20207;-68
2022/01/06 12:12:51;;;;;;;12.50;6.90;;;4.70;99.90;;;;;;4987186;28;20207;-70
2022/01/06 12:15:20;;;;;;;9.93;6.60;;;4.70;99.90;;;;;;4973496;28;20271;-66
2022/01/06 12:17:49;;;;;;;13.77;7.43;;;4.70;99.90;;;;;;4990983;28;20230;-69
2022/01/06 12:20:20;;;;;;;17.43;7.10;;;4.80;99.90;;;;;;4992745;28;20215;-70
2022/01/06 12:22:47;;;;;;;11.40;6.97;;;4.80;99.90;;;;;;4993127;28;20548;-71
2022/01/06 12:25:14;;;;;;;11.43;7.25;;;4.80;99.90;;;;;;4988585;28;20456;-69
2022/01/06 12:27:52;;;;;;;15.20;7.87;;;4.80;99.90;;;;;;4991919;28;20200;-69
2022/01/06 12:30:20;;;;;;;17.33;7.33;;;4.90;99.90;;;;;;4992794;28;20191;-69
2022/01/06 12:32:59;;;;;;;12.07;7.30;;;4.90;99.90;;;;;;4992619;28;20203;-68
2022/01/06 12:35:51;;;;;;;10.67;6.87;;;4.90;99.90;;;;;;4993007;28;20711;-66
2022/01/06 12:38:26;;;;;;;10.87;6.73;;;4.90;99.90;;;;;;4982388;28;20207;-69
2022/01/06 12:40:54;;;;;;;10.33;6.20;;;4.90;99.90;;;;;;4992718;28;20541;-68
2022/01/06 12:43:24;;;;;;;13.60;7.03;;;4.90;99.90;;;;;;4989188;28;20224;-67
2022/01/06 12:46:02;;;;;;;10.43;6.77;;;4.90;99.90;;;;;;4972989;28;20192;-67
2022/01/06 12:48:31;;;;;;;10.93;6.87;;;4.80;99.90;;;;;;4973201;28;20637;-68
2022/01/06 12:50:58;;;;;;;9.73;6.53;;;4.80;99.90;;;;;;4984090;28;20613;-68
2022/01/06 12:53:28;;;;;;;12.63;6.97;;;4.80;99.90;;;;;;4990039;28;20205;-69
2022/01/06 12:55:55;;;;;;;12.47;7.13;;;4.90;99.90;;;;;;4988519;28;20211;-68
2022/01/06 12:58:31;;;;;;;13.63;7.83;;;4.90;99.90;;;;;;4991423;28;20203;-67
2022/01/06 13:01:00;;;;;;;12.17;6.93;;;4.90;99.90;;;;;;4991537;28;20211;-67